Time;durP1;ratioP1;P1;durP2;ratioP2;P2;SDS_P1;SDS_P2;PMS_P1;PMS_P2;Temp;Humidity;BMP_temperature;BMP_pressure;BME280_temperature;BME280_humidity;BME280_pressure;Samples;Min_cycle;Max_cycle;Signal;HPM_P1;HPM_P2
2022/03/30 00:02:00;;;;;;;19.67;11.02;;;9.90;59.70;;;;;;5043047;28;20036;-66
2022/03/30 00:04:26;;;;;;;22.30;11.68;;;9.90;59.80;;;;;;5045503;28;20029;-66
2022/03/30 00:06:52;;;;;;;24.40;11.70;;;9.90;59.90;;;;;;5034839;28;20421;-65
2022/03/30 00:09:17;;;;;;;23.73;12.05;;;9.90;59.90;;;;;;5034132;28;20381;-66
2022/03/30 00:11:43;;;;;;;20.85;11.95;;;9.90;60.00;;;;;;5044450;28;20063;-66
2022/03/30 00:14:09;;;;;;;21.13;12.43;;;9.80;60.00;;;;;;5036014;28;20022;-66
2022/03/30 00:16:35;;;;;;;19.80;11.77;;;9.80;60.10;;;;;;5035167;28;20487;-66
2022/03/30 00:19:02;;;;;;;22.85;11.48;;;9.80;60.10;;;;;;5047292;28;20067;-66
2022/03/30 00:21:28;;;;;;;23.40;11.75;;;9.80;60.10;;;;;;5035958;28;20030;-65
2022/03/30 00:23:53;;;;;;;22.23;11.77;;;9.70;60.10;;;;;;5051117;28;20031;-66
2022/03/30 00:26:19;;;;;;;21.00;11.95;;;9.70;60.20;;;;;;5045738;28;20029;-66
2022/03/30 00:28:45;;;;;;;26.15;12.18;;;9.70;60.30;;;;;;5053987;28;20047;-66
2022/03/30 00:31:12;;;;;;;26.25;11.48;;;9.70;60.40;;;;;;5039023;28;20037;-66
2022/03/30 00:33:38;;;;;;;26.02;11.90;;;9.70;60.40;;;;;;5049239;28;20049;-65
2022/03/30 00:36:04;;;;;;;21.23;11.63;;;9.70;60.50;;;;;;5034540;28;20029;-66
2022/03/30 00:38:29;;;;;;;18.70;11.57;;;9.70;60.90;;;;;;5040501;28;20021;-66
2022/03/30 00:40:55;;;;;;;20.42;11.77;;;9.60;60.50;;;;;;5053728;28;20450;-67
2022/03/30 00:43:21;;;;;;;25.30;12.13;;;9.60;60.50;;;;;;5036256;28;20029;-66
2022/03/30 00:45:46;;;;;;;22.50;12.15;;;9.60;60.50;;;;;;5054567;28;20024;-66
2022/03/30 00:48:12;;;;;;;21.83;10.65;;;9.60;60.60;;;;;;5043882;28;20024;-66
2022/03/30 00:50:38;;;;;;;21.83;11.65;;;9.60;60.70;;;;;;5053533;28;20061;-66
2022/03/30 00:53:04;;;;;;;19.25;10.98;;;9.60;60.70;;;;;;5052599;28;20056;-66
2022/03/30 00:55:30;;;;;;;23.50;11.35;;;9.50;60.70;;;;;;5053095;28;20036;-66
2022/03/30 00:57:57;;;;;;;21.23;10.98;;;9.50;60.80;;;;;;5042989;28;20030;-66
2022/03/30 01:00:24;;;;;;;21.27;11.77;;;9.50;60.90;;;;;;5034469;28;20135;-66
2022/03/30 01:02:51;;;;;;;20.55;10.68;;;9.50;60.90;;;;;;5040827;28;20501;-66
2022/03/30 01:05:16;;;;;;;21.63;10.98;;;9.50;60.90;;;;;;5035282;28;20091;-66
2022/03/30 01:07:42;;;;;;;24.35;11.32;;;9.40;60.90;;;;;;5035909;28;20029;-66
2022/03/30 01:10:10;;;;;;;28.90;11.70;;;9.40;60.90;;;;;;5034370;28;20109;-66
2022/03/30 01:12:39;;;;;;;20.10;10.93;;;9.40;61.00;;;;;;5035104;28;20033;-66
2022/03/30 01:15:07;;;;;;;19.52;11.32;;;9.40;61.00;;;;;;5034157;28;20069;-66
2022/03/30 01:17:33;;;;;;;21.08;10.15;;;9.40;61.10;;;;;;5037906;28;20032;-65
2022/03/30 01:19:58;;;;;;;17.40;10.82;;;9.30;61.10;;;;;;5035474;28;20029;-66
2022/03/30 01:22:24;;;;;;;19.73;10.70;;;9.30;61.10;;;;;;5034650;28;20028;-66
2022/03/30 01:24:50;;;;;;;19.88;10.68;;;9.30;61.20;;;;;;5044506;28;20060;-65
2022/03/30 01:27:15;;;;;;;22.05;10.82;;;9.30;61.20;;;;;;5040929;28;20057;-66
2022/03/30 01:32:26;;;;;;;22.88;10.43;;;9.20;61.20;;;;;;5043320;28;20045;-65
2022/03/30 01:35:01;;;;;;;20.17;10.95;;;9.20;61.30;;;;;;5041420;28;20042;-66
2022/03/30 01:37:29;;;;;;;18.63;10.43;;;9.30;61.30;;;;;;5038660;28;20041;-66
2022/03/30 01:39:56;;;;;;;18.60;10.00;;;9.20;61.20;;;;;;5057860;28;20033;-66
2022/03/30 01:42:23;;;;;;;19.58;10.27;;;9.20;61.30;;;;;;5056984;28;20473;-66
2022/03/30 01:44:49;;;;;;;24.25;10.20;;;9.20;61.30;;;;;;5048298;28;20068;-66
2022/03/30 01:47:15;;;;;;;18.38;10.82;;;9.20;61.30;;;;;;5049124;28;20138;-66
2022/03/30 01:49:41;;;;;;;20.38;10.57;;;9.20;61.40;;;;;;5039824;28;20025;-67
2022/03/30 01:52:08;;;;;;;18.52;10.18;;;9.20;61.50;;;;;;5037835;28;20112;-66
2022/03/30 01:54:40;;;;;;;18.38;9.70;;;9.10;61.50;;;;;;5044826;28;20409;-66
2022/03/30 01:57:06;;;;;;;21.38;10.93;;;9.10;61.60;;;;;;5056863;28;20029;-66
2022/03/30 01:59:33;;;;;;;20.17;9.82;;;9.10;61.60;;;;;;5043888;28;20111;-65
2022/03/30 02:01:58;;;;;;;17.60;9.68;;;9.10;61.60;;;;;;5036617;28;20025;-66
2022/03/30 02:04:24;;;;;;;18.77;10.20;;;9.10;61.70;;;;;;5039033;28;20100;-66
2022/03/30 02:06:51;;;;;;;25.83;10.93;;;9.10;61.80;;;;;;5050566;28;20025;-66
2022/03/30 02:09:16;;;;;;;25.73;11.38;;;9.10;61.80;;;;;;5044727;28;20033;-66
2022/03/30 02:11:42;;;;;;;22.02;11.27;;;9.00;61.70;;;;;;5057283;28;20426;-66
2022/03/30 02:14:08;;;;;;;18.98;10.40;;;9.00;61.80;;;;;;5049326;28;20025;-66
2022/03/30 02:16:34;;;;;;;20.50;10.80;;;9.00;61.90;;;;;;5036558;28;20034;-66
2022/03/30 02:19:00;;;;;;;23.10;10.30;;;9.00;62.00;;;;;;5044487;28;20087;-66
2022/03/30 02:21:26;;;;;;;18.38;10.52;;;8.90;62.00;;;;;;5042826;28;20030;-66
2022/03/30 02:23:51;;;;;;;19.70;10.52;;;8.90;62.10;;;;;;5020499;28;20045;-66
2022/03/30 02:26:18;;;;;;;23.92;10.27;;;8.90;62.10;;;;;;5038036;28;20021;-66
2022/03/30 02:28:51;;;;;;;20.13;10.75;;;8.90;62.20;;;;;;5041031;28;20039;-65
2022/03/30 02:31:18;;;;;;;18.27;10.35;;;8.80;62.20;;;;;;5057058;28;20041;-66
2022/03/30 02:33:44;;;;;;;22.67;10.85;;;8.80;62.30;;;;;;5051974;28;20041;-65
2022/03/30 02:36:10;;;;;;;20.73;10.63;;;8.80;62.30;;;;;;5038128;28;20029;-65
2022/03/30 02:38:36;;;;;;;21.83;10.13;;;8.80;62.40;;;;;;5038604;28;20025;-66
2022/03/30 02:41:03;;;;;;;19.40;9.75;;;8.70;62.40;;;;;;5045492;28;20032;-66
2022/03/30 02:43:28;;;;;;;22.13;10.68;;;8.70;62.50;;;;;;5035959;28;20045;-66
2022/03/30 02:45:54;;;;;;;24.75;10.68;;;8.70;62.50;;;;;;5036619;28;20040;-66
2022/03/30 02:48:21;;;;;;;21.50;11.27;;;8.60;62.50;;;;;;5035923;28;20033;-65
2022/03/30 02:50:51;;;;;;;20.13;10.45;;;8.60;62.50;;;;;;5054885;28;20048;-65
2022/03/30 02:53:18;;;;;;;25.05;11.82;;;8.60;62.60;;;;;;5055314;28;20033;-65
2022/03/30 02:55:44;;;;;;;21.55;11.32;;;8.60;62.60;;;;;;5036970;28;20053;-66
2022/03/30 02:58:10;;;;;;;20.23;10.38;;;8.60;62.70;;;;;;5051410;28;20488;-66
2022/03/30 03:00:37;;;;;;;19.02;10.45;;;8.60;62.70;;;;;;5055746;28;20033;-66
2022/03/30 03:03:04;;;;;;;18.35;10.73;;;8.50;62.80;;;;;;5056472;28;20128;-65
2022/03/30 03:05:32;;;;;;;20.83;10.90;;;8.50;62.80;;;;;;5049750;28;20108;-66
2022/03/30 03:08:02;;;;;;;23.23;11.18;;;8.50;62.90;;;;;;5036650;28;20048;-66
2022/03/30 03:10:28;;;;;;;19.25;9.15;;;8.50;63.00;;;;;;5037409;28;20355;-65
2022/03/30 03:12:54;;;;;;;20.42;11.00;;;8.50;63.00;;;;;;5035509;28;20034;-65
2022/03/30 03:15:21;;;;;;;20.02;10.95;;;8.50;63.10;;;;;;5037535;28;20078;-66
2022/03/30 03:17:47;;;;;;;20.92;10.40;;;8.40;63.10;;;;;;5055690;28;20036;-66
2022/03/30 03:20:12;;;;;;;22.33;10.73;;;8.50;63.20;;;;;;5046825;28;20021;-65
2022/03/30 03:22:39;;;;;;;19.50;10.38;;;8.40;63.20;;;;;;5056643;28;20017;-65
2022/03/30 03:25:06;;;;;;;26.75;10.95;;;8.40;63.20;;;;;;5033836;28;20075;-65
2022/03/30 03:27:31;;;;;;;19.55;10.55;;;8.40;63.30;;;;;;5046273;28;20186;-65
2022/03/30 03:29:57;;;;;;;19.17;9.98;;;8.40;63.30;;;;;;5042390;28;20021;-65
2022/03/30 03:32:23;;;;;;;21.50;10.27;;;8.40;63.30;;;;;;5054877;28;20098;-65
2022/03/30 03:34:48;;;;;;;19.60;9.95;;;8.40;63.40;;;;;;5045582;28;20112;-66
2022/03/30 03:37:15;;;;;;;20.38;10.05;;;8.30;63.40;;;;;;5053172;28;20021;-65
2022/03/30 03:39:41;;;;;;;21.85;10.43;;;8.30;63.50;;;;;;5054941;28;20033;-65
2022/03/30 03:42:07;;;;;;;19.55;10.60;;;8.30;63.50;;;;;;5052233;28;20108;-65
2022/03/30 03:44:33;;;;;;;19.90;9.82;;;8.30;63.60;;;;;;5047725;28;20458;-65
2022/03/30 03:46:59;;;;;;;20.80;10.57;;;8.30;63.60;;;;;;5052880;28;20033;-66
2022/03/30 03:49:24;;;;;;;22.73;11.00;;;8.30;63.60;;;;;;5042201;28;20109;-65
2022/03/30 03:51:50;;;;;;;22.58;9.93;;;8.20;63.70;;;;;;5035949;28;20064;-65
2022/03/30 03:54:16;;;;;;;20.83;10.85;;;8.20;63.80;;;;;;5040800;28;20076;-65
2022/03/30 03:56:41;;;;;;;20.90;10.75;;;8.20;63.80;;;;;;5035536;28;20326;-65
2022/03/30 03:59:07;;;;;;;22.02;10.82;;;8.20;63.80;;;;;;5035330;28;20022;-65
2022/03/30 04:01:33;;;;;;;20.80;11.48;;;8.20;63.80;;;;;;5036370;28;20033;-65
2022/03/30 04:03:58;;;;;;;23.77;11.70;;;8.20;63.90;;;;;;5043976;28;20075;-65
2022/03/30 04:06:25;;;;;;;21.90;11.07;;;8.20;64.00;;;;;;5041483;28;20049;-65
2022/03/30 04:08:50;;;;;;;18.95;10.13;;;8.20;63.90;;;;;;5039734;28;20490;-65
2022/03/30 04:11:16;;;;;;;21.52;11.05;;;8.20;64.00;;;;;;5052490;28;20033;-65
2022/03/30 04:13:42;;;;;;;21.17;10.27;;;8.10;64.00;;;;;;5023741;28;20033;-65
2022/03/30 04:16:07;;;;;;;23.23;10.88;;;8.10;64.10;;;;;;5054971;28;20365;-65
2022/03/30 04:18:33;;;;;;;22.95;12.07;;;8.10;64.20;;;;;;5051699;28;20021;-65
2022/03/30 04:20:58;;;;;;;25.85;11.25;;;8.00;64.10;;;;;;5046657;28;20026;-65
2022/03/30 04:23:24;;;;;;;24.52;10.88;;;8.00;64.10;;;;;;5044824;28;20036;-65
2022/03/30 04:25:50;;;;;;;22.33;11.85;;;8.00;64.30;;;;;;5039291;28;20025;-65
2022/03/30 04:28:17;;;;;;;21.13;12.43;;;8.00;64.30;;;;;;5039467;28;20033;-65
2022/03/30 04:30:43;;;;;;;22.80;12.20;;;7.90;64.40;;;;;;5035371;28;20083;-65
2022/03/30 04:33:09;;;;;;;26.10;13.40;;;7.90;64.50;;;;;;5035594;28;20401;-65
2022/03/30 04:35:38;;;;;;;24.73;12.85;;;7.90;64.50;;;;;;5049038;28;20025;-65
2022/03/30 04:38:05;;;;;;;23.70;12.45;;;7.90;64.60;;;;;;5040986;28;20026;-65
2022/03/30 04:40:32;;;;;;;23.70;12.15;;;7.90;64.50;;;;;;5043622;28;20021;-65
2022/03/30 04:42:58;;;;;;;21.45;12.38;;;7.90;64.60;;;;;;5049942;28;20096;-65
2022/03/30 04:45:24;;;;;;;25.10;11.90;;;7.90;64.60;;;;;;5037656;28;20121;-65
2022/03/30 04:47:54;;;;;;;20.88;12.02;;;7.80;64.60;;;;;;5050191;28;20028;-65
2022/03/30 04:50:21;;;;;;;20.55;11.07;;;7.80;64.70;;;;;;5034009;28;20076;-66
2022/03/30 04:52:47;;;;;;;22.40;11.20;;;7.70;64.80;;;;;;5036952;28;20025;-66
2022/03/30 04:55:13;;;;;;;20.40;11.00;;;7.70;64.80;;;;;;5043448;28;20040;-65
2022/03/30 04:57:40;;;;;;;20.33;10.43;;;7.70;64.90;;;;;;5039664;28;20064;-65
2022/03/30 05:00:09;;;;;;;19.05;10.55;;;7.70;64.90;;;;;;5036233;28;20198;-64
2022/03/30 05:02:36;;;;;;;22.02;11.43;;;7.70;65.00;;;;;;5039665;28;20021;-65
2022/03/30 05:05:03;;;;;;;22.17;11.35;;;7.70;65.00;;;;;;5046431;28;20154;-65
2022/03/30 05:07:28;;;;;;;23.77;11.88;;;7.60;65.00;;;;;;5039385;28;20048;-65
2022/03/30 05:09:54;;;;;;;25.90;11.88;;;7.60;65.00;;;;;;5041213;28;20346;-65
2022/03/30 05:12:19;;;;;;;20.83;11.82;;;7.60;65.10;;;;;;5038395;28;20029;-65
2022/03/30 05:14:45;;;;;;;21.15;11.95;;;7.60;65.10;;;;;;5037980;28;20343;-65
2022/03/30 05:17:11;;;;;;;26.17;11.80;;;7.60;65.10;;;;;;5034721;28;20414;-65
2022/03/30 05:19:40;;;;;;;26.80;12.88;;;7.60;65.10;;;;;;5040579;28;20318;-65
2022/03/30 05:22:05;;;;;;;23.35;11.35;;;7.60;65.20;;;;;;5034345;28;20084;-65
2022/03/30 05:24:31;;;;;;;23.08;12.07;;;7.60;65.20;;;;;;5046806;28;20370;-65
2022/03/30 05:26:57;;;;;;;27.20;12.68;;;7.60;65.20;;;;;;5050168;28;20055;-66
2022/03/30 05:29:23;;;;;;;25.05;13.00;;;7.50;65.20;;;;;;5043660;28;20116;-65
2022/03/30 05:31:49;;;;;;;24.05;12.18;;;7.50;65.30;;;;;;5027728;28;20350;-65
2022/03/30 05:34:15;;;;;;;24.40;11.75;;;7.50;65.40;;;;;;5034775;28;20045;-65
2022/03/30 05:36:41;;;;;;;19.77;11.63;;;7.40;65.40;;;;;;5049674;28;20036;-65
2022/03/30 05:39:07;;;;;;;22.85;11.52;;;7.40;65.40;;;;;;5047755;28;20025;-65
2022/03/30 05:41:33;;;;;;;22.05;11.82;;;7.40;65.40;;;;;;5053669;28;20032;-65
2022/03/30 05:43:59;;;;;;;23.40;11.10;;;7.50;65.50;;;;;;5044386;28;20033;-65
2022/03/30 05:46:25;;;;;;;23.70;11.27;;;7.40;65.50;;;;;;5035212;28;20044;-65
2022/03/30 05:48:54;;;;;;;22.33;11.65;;;7.50;65.60;;;;;;5038913;28;20021;-64
2022/03/30 05:51:20;;;;;;;20.02;10.77;;;7.50;65.60;;;;;;5043246;28;20021;-65
2022/03/30 05:53:45;;;;;;;22.35;12.02;;;7.50;65.50;;;;;;5034222;28;20048;-65
2022/03/30 05:56:11;;;;;;;21.63;11.05;;;7.60;65.50;;;;;;5038148;28;20021;-66
2022/03/30 05:58:37;;;;;;;20.95;11.23;;;7.70;65.40;;;;;;5038212;28;20029;-65
2022/03/30 06:01:03;;;;;;;25.58;11.15;;;7.70;65.30;;;;;;5048231;28;20332;-65
2022/03/30 06:03:29;;;;;;;23.60;11.25;;;7.70;65.30;;;;;;5053706;28;20048;-65
2022/03/30 06:05:55;;;;;;;23.33;12.20;;;7.80;65.30;;;;;;5042619;28;20497;-65
2022/03/30 06:08:20;;;;;;;22.55;11.30;;;7.80;65.30;;;;;;5048642;28;20025;-65
2022/03/30 06:10:46;;;;;;;21.67;10.63;;;7.80;65.20;;;;;;5034761;28;20029;-65
2022/03/30 06:13:12;;;;;;;22.92;11.00;;;7.90;65.20;;;;;;5048758;28;20037;-65
2022/03/30 06:15:39;;;;;;;20.20;11.18;;;7.90;65.20;;;;;;5035608;28;20490;-66
2022/03/30 06:18:10;;;;;;;25.88;11.20;;;8.00;65.20;;;;;;5038889;28;20032;-66
2022/03/30 06:20:37;;;;;;;21.30;10.57;;;8.00;65.10;;;;;;5038009;28;20383;-66
2022/03/30 06:23:02;;;;;;;23.23;10.43;;;8.10;65.00;;;;;;5050242;28;20112;-66
2022/03/30 06:25:28;;;;;;;17.92;9.32;;;8.20;64.90;;;;;;5049539;28;20064;-66
2022/03/30 06:27:54;;;;;;;17.67;9.23;;;8.20;64.70;;;;;;5043954;28;20025;-65
2022/03/30 06:30:20;;;;;;;18.45;9.52;;;8.40;64.60;;;;;;5045729;28;20037;-66
2022/03/30 06:32:49;;;;;;;17.95;9.88;;;8.50;64.30;;;;;;5040876;28;20325;-65
2022/03/30 06:35:19;;;;;;;21.27;9.40;;;8.70;63.80;;;;;;5036029;28;20033;-65
2022/03/30 06:37:46;;;;;;;16.85;9.25;;;9.00;63.50;;;;;;5038149;28;20026;-73
2022/03/30 06:40:14;;;;;;;20.42;9.52;;;9.10;63.10;;;;;;5025307;28;20021;-66
2022/03/30 06:42:41;;;;;;;19.23;9.73;;;9.30;62.70;;;;;;5040521;28;20568;-65
2022/03/30 06:45:08;;;;;;;19.35;9.90;;;9.30;62.40;;;;;;5038539;28;20029;-65
2022/03/30 06:47:34;;;;;;;18.77;9.65;;;9.30;62.30;;;;;;5035963;28;20397;-65
2022/03/30 06:50:00;;;;;;;19.92;9.80;;;9.20;62.30;;;;;;5041942;28;20037;-64
2022/03/30 06:52:26;;;;;;;19.90;10.80;;;9.20;62.50;;;;;;5053672;28;20167;-64
2022/03/30 06:54:52;;;;;;;20.95;10.95;;;9.10;62.50;;;;;;5037747;28;20053;-65
2022/03/30 06:57:20;;;;;;;20.23;10.75;;;9.00;62.60;;;;;;5047558;28;20021;-61
2022/03/30 06:59:46;;;;;;;19.45;9.95;;;9.00;62.70;;;;;;5041435;28;20443;-61
2022/03/30 07:02:12;;;;;;;21.25;10.63;;;9.00;62.70;;;;;;5037696;28;20057;-65
2022/03/30 07:04:38;;;;;;;16.95;8.63;;;9.00;62.70;;;;;;5039577;28;20064;-61
2022/03/30 07:12:33;;;;;;;22.05;9.95;;;9.10;62.60;;;;;;5043282;28;20058;-61
2022/03/30 07:15:00;;;;;;;17.52;9.75;;;9.10;62.50;;;;;;5047103;28;20404;-63
2022/03/30 07:17:26;;;;;;;22.08;10.38;;;9.10;62.50;;;;;;5055097;28;20086;-61
2022/03/30 07:19:52;;;;;;;18.83;10.63;;;9.20;62.40;;;;;;5043392;28;20033;-62
2022/03/30 07:22:18;;;;;;;18.40;9.48;;;9.30;62.30;;;;;;5037342;28;20029;-62
2022/03/30 07:24:44;;;;;;;16.00;8.50;;;9.40;62.20;;;;;;5048884;28;20472;-63
2022/03/30 07:27:10;;;;;;;16.67;8.68;;;9.50;62.10;;;;;;5039251;28;20466;-62
2022/03/30 07:29:36;;;;;;;15.23;8.68;;;9.70;61.70;;;;;;5044884;28;20349;-62
2022/03/30 07:32:02;;;;;;;19.77;8.52;;;10.00;61.30;;;;;;5038807;28;20065;-63
2022/03/30 07:34:29;;;;;;;16.83;8.55;;;10.20;60.80;;;;;;5048631;28;20085;-63
2022/03/30 07:36:55;;;;;;;15.88;7.97;;;10.40;60.20;;;;;;5054273;28;20028;-63
2022/03/30 07:39:21;;;;;;;14.68;8.30;;;10.60;59.70;;;;;;5046277;28;20025;-63
2022/03/30 07:41:46;;;;;;;15.77;7.90;;;10.80;59.30;;;;;;5038309;28;20040;-63
2022/03/30 07:44:12;;;;;;;19.42;8.18;;;11.00;59.00;;;;;;5048909;28;20032;-63
2022/03/30 07:46:38;;;;;;;15.70;7.88;;;11.20;58.60;;;;;;5055687;28;20079;-63
2022/03/30 07:49:03;;;;;;;16.20;8.55;;;11.40;58.10;;;;;;5039852;28;20055;-63
2022/03/30 07:51:29;;;;;;;15.55;7.82;;;11.50;57.80;;;;;;5055412;28;20040;-63
2022/03/30 07:53:55;;;;;;;15.88;8.38;;;11.70;57.40;;;;;;5055248;28;20063;-63
2022/03/30 07:56:21;;;;;;;15.70;8.15;;;12.00;57.20;;;;;;5055424;28;20112;-63
2022/03/30 07:58:48;;;;;;;17.88;8.35;;;12.30;57.00;;;;;;5046739;28;20068;-63
2022/03/30 08:01:16;;;;;;;17.13;8.15;;;12.50;56.70;;;;;;5039054;28;20028;-63
2022/03/30 08:03:44;;;;;;;16.92;8.63;;;12.60;56.50;;;;;;5046764;28;20124;-63
2022/03/30 08:06:10;;;;;;;18.08;8.55;;;12.70;56.40;;;;;;5036569;28;20033;-63
2022/03/30 08:08:36;;;;;;;16.70;9.15;;;12.70;56.50;;;;;;5037428;28;20075;-63
2022/03/30 08:11:01;;;;;;;16.88;8.15;;;12.70;56.50;;;;;;5039875;28;20029;-63
2022/03/30 08:13:27;;;;;;;16.42;8.77;;;12.80;56.60;;;;;;5035323;28;20086;-63
2022/03/30 08:15:53;;;;;;;17.42;9.23;;;12.90;56.60;;;;;;5047309;28;20437;-61
2022/03/30 08:18:18;;;;;;;17.65;9.05;;;13.10;56.80;;;;;;5051000;28;20465;-62
2022/03/30 08:23:28;;;;;;;26.02;10.10;;;13.20;55.80;;;;;;5044468;28;20052;-63
2022/03/30 08:25:54;;;;;;;17.73;9.20;;;13.20;55.70;;;;;;5052107;28;20029;-63
2022/03/30 08:28:19;;;;;;;19.63;8.90;;;13.20;55.50;;;;;;5047623;28;20045;-62
2022/03/30 08:30:45;;;;;;;19.92;8.55;;;13.30;55.40;;;;;;5040186;28;20025;-62
2022/03/30 08:33:11;;;;;;;18.17;8.52;;;13.40;55.10;;;;;;5037114;28;20118;-62
2022/03/30 08:35:36;;;;;;;17.20;8.00;;;13.60;54.70;;;;;;5036751;28;20041;-63
2022/03/30 08:38:03;;;;;;;17.83;8.52;;;13.90;54.40;;;;;;5041962;28;20025;-63
2022/03/30 08:40:29;;;;;;;18.00;8.45;;;14.00;54.00;;;;;;5037596;28;20033;-63
2022/03/30 08:42:55;;;;;;;13.80;7.35;;;14.20;53.70;;;;;;5034574;28;20033;-63
2022/03/30 08:45:21;;;;;;;15.40;7.90;;;14.30;53.40;;;;;;5034609;28;20033;-63
2022/03/30 08:47:47;;;;;;;15.20;7.85;;;14.40;53.10;;;;;;5040482;28;20031;-63
2022/03/30 08:50:12;;;;;;;16.40;7.65;;;14.30;53.00;;;;;;5046045;28;20089;-61
2022/03/30 08:52:38;;;;;;;16.88;7.65;;;14.10;53.10;;;;;;5054369;28;20021;-62
2022/03/30 08:55:04;;;;;;;15.45;8.15;;;13.70;53.50;;;;;;5048531;28;20442;-61
2022/03/30 08:57:30;;;;;;;15.90;7.90;;;13.50;54.10;;;;;;5051586;28;20104;-61
2022/03/30 09:00:20;;;;;;;16.25;8.73;;;13.40;54.50;;;;;;5046464;28;20108;-62
2022/03/30 09:03:00;;;;;;;16.60;8.65;;;13.50;54.60;;;;;;5048169;28;20029;-63
2022/03/30 09:05:29;;;;;;;17.17;8.73;;;13.60;54.20;;;;;;5053488;28;20541;-63
2022/03/30 09:08:15;;;;;;;14.60;8.68;;;13.80;53.90;;;;;;5040941;28;20040;-64
2022/03/30 09:10:45;;;;;;;15.43;8.80;;;14.10;53.40;;;;;;5046675;28;20106;-64
2022/03/30 09:13:14;;;;;;;14.77;7.80;;;14.30;53.00;;;;;;5041188;28;20025;-64
2022/03/30 09:15:41;;;;;;;20.88;7.68;;;14.50;52.60;;;;;;5034087;28;20029;-62
2022/03/30 09:18:11;;;;;;;14.13;6.72;;;14.40;52.40;;;;;;5033289;28;20116;-61
2022/03/30 09:20:40;;;;;;;15.27;7.00;;;14.40;52.20;;;;;;5021189;28;20025;-61
2022/03/30 09:23:08;;;;;;;14.27;6.90;;;14.40;52.00;;;;;;5049617;28;20029;-62
2022/03/30 09:25:34;;;;;;;13.98;7.10;;;14.40;52.00;;;;;;5037965;28;20040;-62
2022/03/30 09:28:01;;;;;;;16.98;7.32;;;14.40;52.00;;;;;;5049716;28;20037;-63
2022/03/30 09:30:28;;;;;;;14.15;6.80;;;14.50;51.90;;;;;;5040310;28;20037;-64
2022/03/30 09:32:56;;;;;;;14.57;7.40;;;14.60;51.80;;;;;;5052209;28;20381;-63
2022/03/30 09:35:25;;;;;;;15.90;7.57;;;14.80;51.70;;;;;;5043297;28;20037;-63
2022/03/30 09:38:08;;;;;;;12.27;6.90;;;14.90;51.40;;;;;;5045995;28;20021;-64
2022/03/30 09:40:39;;;;;;;16.90;7.47;;;14.90;51.10;;;;;;5043131;28;20044;-64
2022/03/30 09:43:24;;;;;;;14.45;7.05;;;15.00;51.00;;;;;;5043685;28;20057;-64
2022/03/30 09:46:06;;;;;;;12.25;6.82;;;15.10;50.60;;;;;;5053069;28;20356;-66
2022/03/30 09:48:49;;;;;;;12.23;6.53;;;15.20;50.70;;;;;;5034364;28;20033;-63
2022/03/30 09:51:15;;;;;;;13.50;7.07;;;15.20;50.40;;;;;;5045913;28;20136;-63
2022/03/30 09:53:42;;;;;;;11.50;6.43;;;15.30;50.40;;;;;;5037107;28;20017;-63
2022/03/30 09:56:14;;;;;;;16.05;7.22;;;15.40;50.20;;;;;;5056506;28;20387;-62
2022/03/30 09:58:40;;;;;;;;;;;15.50;49.90;;;;;;5058183;28;20362;-62
2022/03/30 10:01:21;;;;;;;12.38;5.47;;;15.70;49.90;;;;;;5047659;28;19909;-62
2022/03/30 10:03:59;;;;;;;11.65;5.47;;;15.80;49.50;;;;;;5053272;28;20025;-62
2022/03/30 10:06:27;;;;;;;13.15;5.78;;;15.90;49.10;;;;;;5040297;28;20060;-62
2022/03/30 10:08:54;;;;;;;10.52;5.15;;;15.90;48.70;;;;;;5044059;28;20295;-62
2022/03/30 10:11:21;;;;;;;9.65;5.13;;;16.10;48.50;;;;;;5047726;28;20083;-62
2022/03/30 10:13:50;;;;;;;9.65;5.15;;;16.20;48.20;;;;;;5051537;28;20039;-62
2022/03/30 10:16:17;;;;;;;9.90;5.13;;;16.30;47.90;;;;;;5039617;28;20400;-62
2022/03/30 10:18:44;;;;;;;9.15;4.60;;;16.40;47.60;;;;;;5057662;28;20109;-62
2022/03/30 10:21:25;;;;;;;9.30;4.90;;;16.40;47.30;;;;;;5051279;28;20108;-62
2022/03/30 10:24:02;;;;;;;8.50;4.20;;;16.50;47.10;;;;;;5038483;28;20339;-62
2022/03/30 10:26:37;;;;;;;10.68;5.15;;;16.50;46.70;;;;;;5046319;28;20053;-62
2022/03/30 10:29:09;;;;;;;8.38;4.53;;;16.50;46.60;;;;;;5057036;28;20028;-63
2022/03/30 10:31:35;;;;;;;7.82;4.18;;;16.60;46.20;;;;;;5045986;28;20481;-64
2022/03/30 10:34:25;;;;;;;8.50;4.53;;;16.50;46.20;;;;;;5037481;28;20049;-62
2022/03/30 10:37:07;;;;;;;10.00;4.70;;;16.50;46.10;;;;;;5050290;28;20702;-63
2022/03/30 10:39:33;;;;;;;11.30;4.88;;;16.60;46.10;;;;;;5054795;28;20032;-63
2022/03/30 10:42:10;;;;;;;10.63;4.70;;;16.70;46.10;;;;;;5050173;28;20032;-62
2022/03/30 10:44:36;;;;;;;11.88;4.88;;;16.80;45.60;;;;;;5035898;28;20136;-62
2022/03/30 10:47:14;;;;;;;9.65;5.03;;;16.60;45.60;;;;;;5037637;28;20036;-62
2022/03/30 10:49:55;;;;;;;11.93;5.30;;;16.40;45.80;;;;;;5038716;28;20036;-62
2022/03/30 10:52:37;;;;;;;15.60;5.63;;;16.10;46.00;;;;;;5039435;28;20028;-63
2022/03/30 10:55:12;;;;;;;9.25;4.97;;;15.90;46.50;;;;;;5039852;28;21379;-63
2022/03/30 10:57:52;;;;;;;11.57;4.82;;;15.90;46.40;;;;;;5047602;28;20025;-63
2022/03/30 11:00:27;;;;;;;9.43;4.38;;;16.00;46.30;;;;;;5042311;28;20029;-64
2022/03/30 11:03:05;;;;;;;12.07;4.97;;;16.00;46.00;;;;;;5048604;28;20026;-63
2022/03/30 11:05:31;;;;;;;9.35;4.70;;;15.90;46.00;;;;;;5036583;28;20048;-62
2022/03/30 11:07:57;;;;;;;9.68;4.40;;;15.90;46.20;;;;;;5042044;28;20107;-63
2022/03/30 11:10:25;;;;;;;9.25;4.55;;;16.00;46.00;;;;;;5040017;28;20033;-63
2022/03/30 11:13:05;;;;;;;11.05;4.95;;;16.10;45.90;;;;;;5044203;28;20061;-63
2022/03/30 11:15:53;;;;;;;11.20;4.55;;;16.00;45.70;;;;;;5053643;28;20041;-63
2022/03/30 11:18:20;;;;;;;9.10;4.35;;;15.90;45.70;;;;;;5043027;28;20029;-63
2022/03/30 11:21:16;;;;;;;9.13;4.43;;;15.90;45.70;;;;;;5056369;28;20116;-63
2022/03/30 11:24:02;;;;;;;8.73;4.43;;;15.90;45.60;;;;;;5050687;28;20568;-63
2022/03/30 11:26:50;;;;;;;9.90;4.35;;;15.80;45.60;;;;;;5036096;28;20036;-63
2022/03/30 11:29:40;;;;;;;8.07;3.90;;;15.90;45.60;;;;;;5039528;28;20040;-62
2022/03/30 11:32:24;;;;;;;8.35;4.30;;;15.90;45.50;;;;;;5050419;28;20017;-64
2022/03/30 11:34:55;;;;;;;9.98;4.68;;;15.90;45.50;;;;;;5044179;28;20033;-64
2022/03/30 11:37:32;;;;;;;10.02;4.70;;;15.80;45.70;;;;;;5047627;28;20057;-64
2022/03/30 11:40:04;;;;;;;9.10;3.67;;;15.70;46.50;;;;;;5037654;28;20079;-64
2022/03/30 11:42:31;;;;;;;9.18;3.95;;;15.60;45.90;;;;;;5041461;28;20049;-64
2022/03/30 11:45:13;;;;;;;8.15;4.13;;;15.50;45.90;;;;;;5037282;28;20025;-64
2022/03/30 11:47:52;;;;;;;9.68;4.03;;;15.40;45.90;;;;;;5039083;28;20102;-64
2022/03/30 11:50:31;;;;;;;8.18;4.28;;;15.40;46.00;;;;;;5050423;28;20136;-64
2022/03/30 11:53:05;;;;;;;7.85;4.05;;;15.30;46.10;;;;;;5042699;28;20025;-64
2022/03/30 11:55:38;;;;;;;9.65;4.57;;;15.20;46.10;;;;;;5053378;28;20044;-64
2022/03/30 11:58:05;;;;;;;9.93;4.18;;;15.20;46.20;;;;;;5036833;28;20045;-64
2022/03/30 12:00:32;;;;;;;8.05;4.30;;;15.10;46.30;;;;;;5053939;28;20040;-64
2022/03/30 12:03:00;;;;;;;9.05;4.80;;;15.00;46.40;;;;;;5039111;28;20021;-64
2022/03/30 12:05:26;;;;;;;8.27;3.78;;;15.00;46.50;;;;;;5036033;28;20104;-64
2022/03/30 12:07:57;;;;;;;8.75;4.78;;;15.00;46.50;;;;;;5052273;28;20036;-64
2022/03/30 12:10:29;;;;;;;8.43;3.90;;;15.00;46.50;;;;;;5043388;28;20029;-64
2022/03/30 12:12:58;;;;;;;7.32;3.95;;;15.00;46.50;;;;;;5032572;28;20060;-64
2022/03/30 12:15:24;;;;;;;9.50;4.05;;;15.00;46.40;;;;;;5040705;28;20033;-64
2022/03/30 12:17:54;;;;;;;9.07;4.00;;;15.00;46.40;;;;;;5034708;28;20057;-64
2022/03/30 12:20:33;;;;;;;10.13;4.65;;;15.00;46.40;;;;;;5036348;28;20526;-64
2022/03/30 12:23:07;;;;;;;9.07;4.13;;;14.90;46.30;;;;;;5049980;28;20034;-64
2022/03/30 12:25:36;;;;;;;7.63;3.53;;;14.90;46.40;;;;;;5049547;28;20061;-64
2022/03/30 12:28:03;;;;;;;7.95;4.15;;;14.90;46.40;;;;;;5050583;28;20362;-64
2022/03/30 12:30:31;;;;;;;9.65;4.10;;;14.90;46.50;;;;;;5002241;28;20551;-64
2022/03/30 12:32:57;;;;;;;8.48;4.18;;;14.80;46.60;;;;;;5046530;28;20045;-64
2022/03/30 12:35:28;;;;;;;8.88;3.72;;;14.70;46.70;;;;;;5046861;28;20114;-64
2022/03/30 12:38:08;;;;;;;9.30;3.38;;;14.70;46.80;;;;;;5047452;28;20386;-64
2022/03/30 12:40:36;;;;;;;7.32;3.78;;;14.70;46.80;;;;;;5036817;28;20087;-64
2022/03/30 12:43:03;;;;;;;9.40;4.20;;;14.70;46.70;;;;;;5036838;28;20390;-64
2022/03/30 12:45:29;;;;;;;8.68;4.05;;;14.80;46.70;;;;;;5046025;28;20362;-64
2022/03/30 12:47:58;;;;;;;9.88;4.20;;;14.90;46.70;;;;;;5018354;28;20029;-64
2022/03/30 12:50:31;;;;;;;7.93;4.15;;;15.00;46.60;;;;;;5037238;28;20034;-65
2022/03/30 12:53:02;;;;;;;10.75;4.93;;;15.00;46.50;;;;;;5047254;28;20040;-64
2022/03/30 12:55:34;;;;;;;8.18;3.85;;;15.00;46.50;;;;;;5053118;28;20044;-64
2022/03/30 12:58:13;;;;;;;9.40;4.13;;;15.00;46.40;;;;;;5044239;28;20331;-64